• Join FlightAware (Why Join?)
  • Login
  • US Flag 
08:17PM EDT


 

Airport Tracker/Info


-or-


 

Live Flight TrackerFlight Track Log ✈ WEW1540 ✈ 05-Jul-2013 ✈ CYKY - CYQR

Flight Track Log - Related Links

Times and Time Zones

All times are in EDT time to prevent confusion due to time zone crossing. See the WEW1540 flight status page for this flight to view local times or setup timezone preferences in your user account.

Time Position Orientation Groundspeed Altitude Reporting Facility
EDT Latitude Longitude Course Direction KTS MPH feet Rate Location/Type
07:12PM 51.4500 -108.8500 90° East 150 173 9,000  Level Winnipeg Center
07:13PM 51.4500 -108.7667 90° East 170 196 9,000  Level Winnipeg Center
07:14PM 51.4333 -108.6833 108° East 180 207 9,000  Level Winnipeg Center
07:15PM 51.4000 -108.6167 129° Southeast 180 207 9,000 240 Level Winnipeg Center
07:16PM 51.4000 -108.5333 90° East 180 207 9,500 660 Climbing Winnipeg Center
07:17PM 51.3833 -108.4833 118° Southeast 140 161 10,400 720 Climbing Winnipeg Center
07:18PM 51.3500 -108.4500 148° Southeast 150 173 11,000 300 Climbing Winnipeg Center
07:19PM 51.3333 -108.3500 105° East 150 173 11,000  Level Winnipeg Center
07:20PM 51.3167 -108.2667 108° East 180 207 11,000  Level Winnipeg Center
07:21PM 51.3167 -108.2167 90° East 190 219 11,000 120 Level Winnipeg Center
07:22PM 51.2833 -108.1333 123° Southeast 190 219 11,300  Climbing Winnipeg Center
07:23PM 51.2833 -108.0500 90° East 190 219 11,000 -180 Descending Winnipeg Center
07:24PM 51.2667 -107.9667 108° East 190 219 11,000  Level Winnipeg Center
07:25PM 51.2500 -107.8833 108° East 200 230 11,000  Level Winnipeg Center
07:26PM 51.2000 -107.8333 148° Southeast 190 219 11,000  Level Winnipeg Center
07:27PM 51.1833 -107.7500 108° East 190 219 11,000 -60 Level Winnipeg Center
07:28PM 51.1833 -107.6667 90° East 190 219 10,900 -600 Descending Winnipeg Center
07:29PM 51.1667 -107.5667 105° East 210 242 9,900 -960 Descending Winnipeg Center
07:30PM 51.1500 -107.4833 108° East 220 253 9,000 -480 Descending Winnipeg Center
07:31PM 51.1333 -107.4000 108° East 210 242 9,000  Level Winnipeg Center
07:32PM 51.1167 -107.3000 105° East 190 219 9,000  Level Winnipeg Center
07:33PM 51.1000 -107.2167 108° East 190 219 9,000  Level Winnipeg Center
07:34PM 51.0667 -107.1333 122° Southeast 190 219 9,000  Level Winnipeg Center
07:35PM 51.0833 -107.0500 72° East 190 219 9,000  Level Winnipeg Center
07:36PM 51.0667 -106.9833 112° Southeast 190 219 9,000  Level Winnipeg Center
07:37PM 51.0500 -106.8833 105° East 190 219 9,000  Level Winnipeg Center
07:38PM 51.0333 -106.8000 108° East 190 219 9,000  Level Winnipeg Center
07:39PM 51.0167 -106.7500 118° Southeast 190 219 9,000  Level Winnipeg Center
07:40PM 51.0000 -106.6667 108° East 190 219 9,000  Level Winnipeg Center
07:41PM 50.9833 -106.5833 108° East 190 219 9,000  Level Winnipeg Center
07:42PM 50.9500 -106.5167 128° Southeast 180 207 9,000  Level Winnipeg Center
07:43PM 50.9333 -106.4333 108° East 190 219 9,000  Level Winnipeg Center
07:44PM 50.9167 -106.3833 118° Southeast 180 207 9,000  Level Winnipeg Center
07:45PM 50.9000 -106.3000 108° East 180 207 9,000  Level Winnipeg Center
07:46PM 50.8667 -106.2333 128° Southeast 190 219 9,000  Level Winnipeg Center
07:47PM 50.8500 -106.1500 108° East 190 219 9,000  Level Winnipeg Center
07:48PM 50.8333 -106.0667 108° East 190 219 9,000  Level Winnipeg Center
07:49PM 50.8167 -105.9833 108° East 190 219 9,000  Level Winnipeg Center
07:50PM 50.7833 -105.9000 122° Southeast 190 219 9,000  Level Winnipeg Center
07:51PM 50.7833 -105.8500 90° East 190 219 9,000  Level Winnipeg Center
07:52PM 50.7500 -105.7667 122° Southeast 180 207 9,000  Level Winnipeg Center
07:53PM 50.7333 -105.6833 108° East 190 219 9,000 -300 Level Winnipeg Center
07:54PM 50.7167 -105.6000 108° East 190 219 8,500 -540 Descending Winnipeg Center
07:55PM 50.6833 -105.5333 128° Southeast 200 230 8,000 -540 Descending Winnipeg Center
07:56PM 50.6667 -105.4500 107° East 200 230 7,500 -540 Descending Winnipeg Center
07:57PM 50.6500 -105.3667 107° East 200 230 7,000 -600 Descending Winnipeg Center
07:58PM 50.6167 -105.2833 122° Southeast 200 230 6,400 -780 Descending Winnipeg Center
07:59PM 50.6000 -105.2000 107° East 200 230 5,500 -720 Descending Winnipeg Center
08:00PM 50.5833 -105.1500 118° Southeast 200 230 5,000 -540 Descending Winnipeg Center
08:01PM 50.5500 -105.0667 122° Southeast 190 219 4,500 -600 Descending Winnipeg Center
08:02PM 50.5333 -104.9833 107° East 190 219 3,900 -600 Descending Winnipeg Center
08:03PM 50.5167 -104.9167 111° Southeast 180 207 3,300 -540 Descending Winnipeg Center
08:04PM 50.5000 -104.8333 107° East 170 196 2,900 -180 Descending Winnipeg Center
08:05PM 50.4833 -104.7833 118° Southeast 140 161 3,000  Climbing Winnipeg Center
08:06PM 50.4500 -104.7500 148° Southeast 120 138 2,900 -300 Descending Winnipeg Center
08:07PM 50.4333 -104.7333 148° Southeast 120 138 2,500 -540 Descending Winnipeg Center
08:08PM 50.4167 -104.7000 128° Southeast 100 115 1,900 -600 Descending Winnipeg Center